Time;durP1;ratioP1;P1;durP2;ratioP2;P2;SDS_P1;SDS_P2;PMS_P1;PMS_P2;Temp;Humidity;BMP_temperature;BMP_pressure;BME280_temperature;BME280_humidity;BME280_pressure;Samples;Min_cycle;Max_cycle;Signal;HPM_P1;HPM_P2
2022/04/03 00:01:32;;;;;;;3.07;2.77;;;2.00;99.90;;;;;;5075770;28;20564;-62
2022/04/03 00:03:57;;;;;;;5.33;3.10;;;2.00;99.90;;;;;;5075506;28;20191;-63
2022/04/03 00:06:23;;;;;;;3.37;2.77;;;2.00;99.90;;;;;;5075299;28;20173;-62
2022/04/03 00:08:49;;;;;;;13.97;5.60;;;2.00;99.90;;;;;;5075169;28;20696;-63
2022/04/03 00:11:15;;;;;;;6.03;3.00;;;2.00;99.90;;;;;;5075653;28;20179;-62
2022/04/03 00:13:41;;;;;;;4.37;2.90;;;2.00;99.90;;;;;;5075476;28;20175;-62
2022/04/03 00:16:07;;;;;;;4.33;3.00;;;2.00;99.90;;;;;;5075309;28;20167;-63
2022/04/03 00:18:33;;;;;;;4.07;3.10;;;2.00;99.90;;;;;;5075236;28;20203;-63
2022/04/03 00:21:00;;;;;;;6.50;3.40;;;2.00;99.90;;;;;;5075146;28;20232;-62
2022/04/03 00:23:26;;;;;;;6.13;3.27;;;2.00;99.90;;;;;;5074634;28;20523;-63
2022/04/03 00:25:52;;;;;;;4.53;3.33;;;2.00;99.90;;;;;;5075261;28;20195;-63
2022/04/03 00:28:18;;;;;;;8.07;3.60;;;2.00;99.90;;;;;;5075100;28;20176;-62
2022/04/03 00:30:44;;;;;;;6.93;3.83;;;1.90;99.90;;;;;;5075212;28;20225;-61
2022/04/03 00:33:14;;;;;;;6.77;4.50;;;1.90;99.90;;;;;;5075093;28;20263;-61
2022/04/03 00:35:40;;;;;;;6.77;3.50;;;1.90;99.90;;;;;;5074839;28;20168;-63
2022/04/03 00:38:07;;;;;;;6.73;4.50;;;1.90;99.90;;;;;;5074381;28;20268;-63
2022/04/03 00:40:32;;;;;;;5.93;4.33;;;1.90;99.90;;;;;;5074998;28;20173;-62
2022/04/03 00:42:58;;;;;;;4.23;3.77;;;1.90;99.90;;;;;;5074906;28;20184;-63
2022/04/03 00:45:24;;;;;;;6.77;3.67;;;1.90;99.90;;;;;;5075010;28;20169;-63
2022/04/03 00:47:55;;;;;;;6.23;3.13;;;1.90;99.90;;;;;;5074712;28;20191;-62
2022/04/03 00:50:21;;;;;;;7.83;3.83;;;1.90;99.90;;;;;;5074580;28;20188;-61
2022/04/03 00:52:49;;;;;;;5.57;3.90;;;1.90;99.90;;;;;;5074126;28;20187;-63
2022/04/03 00:55:15;;;;;;;7.67;5.00;;;1.80;99.90;;;;;;5074406;28;20235;-62
2022/04/03 00:57:43;;;;;;;5.70;3.40;;;1.80;99.90;;;;;;5074509;28;20214;-62
2022/04/03 01:00:12;;;;;;;6.50;3.43;;;1.70;99.90;;;;;;5074569;28;20198;-63
2022/04/03 01:02:38;;;;;;;5.13;3.00;;;1.70;99.90;;;;;;5073941;28;20167;-62
2022/04/03 01:05:04;;;;;;;4.57;3.60;;;1.60;99.90;;;;;;5074637;28;20224;-62
2022/04/03 01:07:30;;;;;;;4.93;3.60;;;1.60;99.90;;;;;;5073931;28;20220;-62
2022/04/03 01:09:56;;;;;;;4.43;3.30;;;1.60;99.90;;;;;;5074468;28;20167;-62
2022/04/03 01:12:22;;;;;;;8.83;3.53;;;1.60;99.90;;;;;;5074322;28;20489;-62
2022/04/03 01:14:47;;;;;;;4.10;3.07;;;1.50;99.90;;;;;;5074148;28;20182;-62
2022/04/03 01:17:14;;;;;;;4.40;3.43;;;1.50;99.90;;;;;;5074029;28;20174;-62
2022/04/03 01:19:40;;;;;;;4.77;3.40;;;1.40;99.90;;;;;;5073913;28;20235;-62
2022/04/03 01:22:07;;;;;;;5.33;3.23;;;1.40;99.90;;;;;;5073530;28;20665;-62
2022/04/03 01:24:33;;;;;;;4.23;3.83;;;1.30;99.90;;;;;;5074104;28;20202;-62
2022/04/03 01:26:59;;;;;;;5.37;4.13;;;1.30;99.90;;;;;;5073957;28;20184;-63
2022/04/03 01:29:25;;;;;;;6.13;3.70;;;1.20;99.90;;;;;;5074020;28;20172;-62
2022/04/03 01:31:51;;;;;;;7.37;4.40;;;1.30;99.90;;;;;;5073089;28;20193;-62
2022/04/03 01:34:18;;;;;;;9.80;4.47;;;1.30;99.90;;;;;;5073483;28;20230;-62
2022/04/03 01:36:45;;;;;;;4.80;4.27;;;1.30;99.90;;;;;;5073305;28;20218;-62
2022/04/03 01:39:10;;;;;;;7.27;4.30;;;1.30;99.90;;;;;;5073724;28;20242;-62
2022/04/03 01:41:38;;;;;;;8.17;4.40;;;1.20;99.90;;;;;;5073760;28;20202;-62
2022/04/03 01:44:06;;;;;;;8.20;3.93;;;1.20;99.90;;;;;;5073657;28;20721;-62
2022/04/03 01:46:32;;;;;;;8.37;4.40;;;1.20;99.90;;;;;;5073506;28;20171;-62
2022/04/03 01:48:57;;;;;;;6.33;3.60;;;1.10;99.90;;;;;;5073441;28;20318;-62
2022/04/03 01:51:23;;;;;;;5.90;4.37;;;1.10;99.90;;;;;;5071913;28;20173;-62
2022/04/03 01:53:48;;;;;;;4.90;3.73;;;1.10;99.90;;;;;;5073610;28;20179;-62
2022/04/03 01:56:14;;;;;;;5.70;3.50;;;1.10;99.90;;;;;;5071915;28;20264;-62
2022/04/03 01:58:40;;;;;;;6.17;3.70;;;1.10;99.90;;;;;;5073520;28;20216;-62
2022/04/03 02:01:05;;;;;;;4.00;3.53;;;1.10;99.90;;;;;;5073333;28;20730;-63
2022/04/03 02:03:31;;;;;;;6.73;3.63;;;1.00;99.90;;;;;;5072976;28;20181;-63
2022/04/03 02:05:57;;;;;;;7.83;3.80;;;1.10;99.90;;;;;;5072927;28;20250;-63
2022/04/03 02:08:26;;;;;;;3.87;3.50;;;1.00;99.90;;;;;;5073414;28;20177;-63
2022/04/03 02:10:52;;;;;;;5.70;3.40;;;1.00;99.90;;;;;;5073314;28;20176;-62
2022/04/03 02:13:18;;;;;;;4.80;3.47;;;1.00;99.90;;;;;;5073262;28;20188;-63
2022/04/03 02:15:43;;;;;;;6.10;3.13;;;0.90;99.90;;;;;;5072492;28;20170;-62
2022/04/03 02:18:09;;;;;;;5.17;3.97;;;0.90;99.90;;;;;;5072863;28;20201;-63
2022/04/03 02:20:36;;;;;;;5.77;3.27;;;0.80;99.90;;;;;;5072922;28;20529;-62
2022/04/03 02:23:03;;;;;;;4.70;3.53;;;0.80;99.90;;;;;;5073274;28;20181;-63
2022/04/03 02:25:30;;;;;;;7.53;3.40;;;0.80;99.90;;;;;;5073161;28;20188;-63
2022/04/03 02:27:56;;;;;;;4.80;3.40;;;0.80;99.90;;;;;;5073278;28;20181;-63
2022/04/03 02:30:22;;;;;;;3.97;3.10;;;0.80;99.90;;;;;;5073022;28;20175;-63
2022/04/03 02:32:49;;;;;;;3.93;3.03;;;0.80;99.90;;;;;;5072749;28;20182;-63
2022/04/03 02:35:15;;;;;;;4.03;3.40;;;0.80;99.90;;;;;;5073003;28;20183;-63
2022/04/03 02:37:41;;;;;;;9.70;3.50;;;0.80;99.90;;;;;;5072780;28;20214;-63
2022/04/03 02:40:10;;;;;;;4.17;3.53;;;0.80;99.90;;;;;;5073211;28;20189;-62
2022/04/03 02:42:36;;;;;;;4.37;3.50;;;0.80;99.90;;;;;;5072959;28;20174;-62
2022/04/03 02:45:04;;;;;;;3.97;3.30;;;0.80;99.90;;;;;;5072692;28;20173;-63
2022/04/03 02:47:30;;;;;;;5.40;3.60;;;0.80;99.90;;;;;;5072550;28;20177;-63
2022/04/03 02:49:55;;;;;;;5.40;3.50;;;0.80;99.90;;;;;;5072882;28;20202;-62
2022/04/03 02:52:21;;;;;;;6.27;3.30;;;0.80;99.90;;;;;;5072998;28;20161;-62
2022/04/03 02:54:47;;;;;;;3.67;3.37;;;0.80;99.90;;;;;;5072653;28;20709;-62
2022/04/03 02:57:17;;;;;;;8.70;3.73;;;0.70;99.90;;;;;;5072877;28;20225;-62
2022/04/03 02:59:44;;;;;;;3.70;3.30;;;0.70;99.90;;;;;;5072697;28;20306;-62
2022/04/03 03:02:10;;;;;;;4.70;3.27;;;0.70;99.90;;;;;;5072499;28;20176;-62
2022/04/03 03:04:37;;;;;;;5.90;3.97;;;0.70;99.90;;;;;;5073056;28;20227;-62
2022/04/03 03:07:05;;;;;;;4.23;3.20;;;0.70;99.90;;;;;;5072653;28;20212;-62
2022/04/03 03:09:30;;;;;;;5.00;3.60;;;0.60;99.90;;;;;;5073001;28;20201;-62
2022/04/03 03:11:56;;;;;;;7.27;3.83;;;0.60;99.90;;;;;;5072885;28;20624;-63
2022/04/03 03:14:22;;;;;;;4.77;3.77;;;0.60;99.90;;;;;;5072365;28;20172;-62
2022/04/03 03:16:48;;;;;;;4.93;3.63;;;0.60;99.90;;;;;;5072290;28;20249;-62
2022/04/03 03:19:15;;;;;;;6.93;4.37;;;0.60;99.90;;;;;;5072389;28;20267;-62
2022/04/03 03:21:41;;;;;;;5.40;3.83;;;0.60;99.90;;;;;;5072392;28;20257;-62
2022/04/03 03:24:07;;;;;;;3.77;3.43;;;0.70;99.90;;;;;;5072336;28;20178;-62
2022/04/03 03:26:33;;;;;;;5.00;3.77;;;0.80;99.90;;;;;;5073988;28;20226;-62
2022/04/03 03:28:59;;;;;;;8.57;3.83;;;0.80;99.90;;;;;;5075925;28;20206;-62
2022/04/03 03:31:24;;;;;;;5.63;3.80;;;0.80;99.90;;;;;;5074313;28;20541;-62
2022/04/03 03:33:50;;;;;;;6.07;4.13;;;0.90;99.90;;;;;;5076171;28;20169;-63
2022/04/03 03:36:16;;;;;;;5.43;4.30;;;0.90;99.90;;;;;;5076130;28;20178;-62
2022/04/03 03:38:42;;;;;;;6.60;3.60;;;0.90;99.90;;;;;;5075901;28;20844;-62
2022/04/03 03:41:09;;;;;;;6.47;3.80;;;1.00;99.90;;;;;;5075847;28;20279;-63
2022/04/03 03:43:35;;;;;;;9.07;5.37;;;0.90;99.90;;;;;;5075552;28;20231;-65
2022/04/03 03:46:01;;;;;;;5.70;3.37;;;1.00;99.90;;;;;;5075629;28;20175;-62
2022/04/03 03:48:26;;;;;;;6.07;3.93;;;1.00;99.90;;;;;;5075276;28;20659;-62
2022/04/03 03:50:52;;;;;;;5.50;3.73;;;1.00;99.90;;;;;;5075713;28;20191;-63
2022/04/03 03:53:19;;;;;;;6.87;3.53;;;1.00;99.90;;;;;;5075722;28;20603;-63
2022/04/03 03:55:44;;;;;;;6.07;3.87;;;0.90;99.90;;;;;;5075324;28;20225;-62
2022/04/03 03:58:10;;;;;;;6.70;3.73;;;0.90;99.90;;;;;;5075137;28;20731;-63
2022/04/03 04:00:35;;;;;;;5.57;3.83;;;0.80;99.90;;;;;;5075056;28;20208;-63
2022/04/03 04:03:01;;;;;;;5.53;3.40;;;0.80;99.90;;;;;;5075570;28;20220;-61
2022/04/03 04:05:27;;;;;;;5.67;3.67;;;0.70;99.90;;;;;;5073984;28;20170;-62
2022/04/03 04:07:53;;;;;;;5.30;3.50;;;0.70;99.90;;;;;;5075270;28;20171;-62
2022/04/03 04:10:19;;;;;;;5.67;3.83;;;0.70;99.90;;;;;;5075472;28;20539;-62
2022/04/03 04:12:46;;;;;;;6.63;3.80;;;0.70;99.90;;;;;;5074929;28;20780;-62
2022/04/03 04:15:13;;;;;;;6.37;3.40;;;0.70;99.90;;;;;;5074364;28;20215;-61
2022/04/03 04:17:44;;;;;;;9.00;3.57;;;0.70;99.90;;;;;;5074763;28;20243;-62
2022/04/03 04:20:13;;;;;;;4.20;3.50;;;0.70;99.90;;;;;;5074804;28;20167;-63
2022/04/03 04:22:39;;;;;;;5.43;3.60;;;0.70;99.90;;;;;;5074671;28;20236;-62
2022/04/03 04:25:06;;;;;;;7.00;3.97;;;0.80;99.90;;;;;;5074445;28;20622;-63
2022/04/03 04:27:32;;;;;;;6.67;4.30;;;0.80;99.90;;;;;;5074836;28;20517;-62
2022/04/03 04:29:58;;;;;;;6.67;4.00;;;0.80;99.90;;;;;;5074759;28;20308;-61
2022/04/03 04:32:23;;;;;;;4.57;3.80;;;0.80;99.90;;;;;;5075204;28;20181;-63
2022/04/03 04:34:50;;;;;;;6.77;4.03;;;0.80;99.90;;;;;;5074818;28;20631;-63
2022/04/03 04:37:16;;;;;;;7.27;4.40;;;0.90;99.90;;;;;;5073913;28;20668;-62
2022/04/03 04:39:42;;;;;;;5.43;3.80;;;0.90;99.90;;;;;;5074519;28;20208;-63
2022/04/03 04:42:08;;;;;;;4.10;3.70;;;0.90;99.90;;;;;;5074776;28;20172;-62
2022/04/03 04:44:33;;;;;;;6.77;3.70;;;0.90;99.90;;;;;;5074224;28;20637;-62
2022/04/03 04:46:59;;;;;;;5.13;3.80;;;0.90;99.90;;;;;;5074119;28;20259;-62
2022/04/03 04:49:25;;;;;;;6.20;4.03;;;0.80;99.90;;;;;;5074296;28;20205;-63
2022/04/03 04:51:50;;;;;;;4.53;3.77;;;0.80;99.90;;;;;;5074859;28;20164;-63
2022/04/03 04:54:16;;;;;;;6.67;4.40;;;0.90;99.90;;;;;;5074287;28;20166;-62
2022/04/03 04:56:42;;;;;;;4.50;3.73;;;0.90;99.90;;;;;;5074175;28;20221;-62
2022/04/03 04:59:08;;;;;;;4.30;3.90;;;0.90;99.90;;;;;;5073902;28;20671;-63
2022/04/03 05:01:33;;;;;;;9.93;4.07;;;0.80;99.90;;;;;;5074328;28;20172;-62
2022/04/03 05:03:59;;;;;;;5.33;4.13;;;0.80;99.90;;;;;;5074208;28;20175;-62
2022/04/03 05:06:26;;;;;;;8.67;4.50;;;0.90;99.90;;;;;;5073982;28;20208;-62
2022/04/03 05:08:53;;;;;;;6.13;4.70;;;0.90;99.90;;;;;;5074218;28;20183;-61
2022/04/03 05:11:20;;;;;;;7.03;4.40;;;0.90;99.90;;;;;;5073892;28;20175;-62
2022/04/03 05:13:47;;;;;;;6.40;4.63;;;1.00;99.90;;;;;;5073283;28;20178;-62
2022/04/03 05:16:12;;;;;;;9.30;4.73;;;1.00;99.90;;;;;;5074068;28;20189;-62
2022/04/03 05:18:39;;;;;;;7.23;4.70;;;1.00;99.90;;;;;;5073828;28;20234;-62
2022/04/03 05:21:04;;;;;;;6.90;4.43;;;1.10;99.90;;;;;;5073765;28;20171;-63
2022/04/03 05:23:31;;;;;;;5.03;4.20;;;1.10;99.90;;;;;;5073808;28;20693;-62
2022/04/03 05:25:57;;;;;;;8.10;4.70;;;1.20;99.90;;;;;;5073415;28;20301;-63
2022/04/03 05:28:23;;;;;;;8.87;4.97;;;1.30;99.90;;;;;;5073618;28;20167;-62
2022/04/03 05:30:48;;;;;;;6.57;4.50;;;1.50;99.90;;;;;;5073796;28;20178;-62
2022/04/03 05:33:15;;;;;;;7.77;4.60;;;1.70;99.90;;;;;;5073979;28;20183;-62
2022/04/03 05:35:41;;;;;;;9.47;5.17;;;1.80;99.90;;;;;;5073677;28;20252;-62
2022/04/03 05:38:06;;;;;;;7.43;4.37;;;2.00;99.90;;;;;;5073565;28;20622;-63
2022/04/03 05:40:32;;;;;;;6.37;4.80;;;2.00;99.90;;;;;;5073192;28;20186;-61
2022/04/03 05:42:58;;;;;;;5.53;4.90;;;2.10;99.90;;;;;;5072968;28;20199;-63
2022/04/03 05:45:24;;;;;;;7.83;5.00;;;2.30;99.90;;;;;;5073310;28;20229;-61
2022/04/03 05:47:50;;;;;;;14.20;4.63;;;2.50;99.90;;;;;;5073249;28;20179;-63
2022/04/03 05:50:16;;;;;;;7.07;4.63;;;2.90;99.90;;;;;;5072982;28;20187;-62
2022/04/03 05:52:46;;;;;;;7.10;4.97;;;3.20;99.90;;;;;;5073284;28;20172;-62
2022/04/03 05:55:12;;;;;;;5.97;4.93;;;3.40;99.90;;;;;;5072995;28;20212;-62
2022/04/03 05:57:38;;;;;;;4.97;4.47;;;3.60;99.90;;;;;;5072398;28;20171;-62
2022/04/03 06:00:06;;;;;;;5.30;4.60;;;3.80;99.90;;;;;;5073484;28;20217;-62
2022/04/03 06:02:50;;;;;;;8.57;4.73;;;4.00;99.90;;;;;;5073141;28;20195;-62
2022/04/03 06:05:24;;;;;;;7.40;5.20;;;4.20;99.90;;;;;;5073017;28;20168;-61
2022/04/03 06:07:50;;;;;;;5.53;5.00;;;4.20;99.90;;;;;;5072894;28;20173;-62
2022/04/03 06:10:17;;;;;;;7.17;5.40;;;4.40;99.90;;;;;;5072859;28;20219;-62
2022/04/03 06:12:54;;;;;;;9.27;4.80;;;4.70;99.90;;;;;;5072952;28;20631;-61
2022/04/03 06:15:20;;;;;;;6.57;4.77;;;4.90;99.80;;;;;;5073219;28;20277;-62
2022/04/03 06:17:50;;;;;;;6.43;4.67;;;5.60;99.90;;;;;;5072751;28;20266;-62
2022/04/03 06:20:17;;;;;;;6.83;4.53;;;7.40;98.10;;;;;;5072724;28;20181;-62
2022/04/03 06:22:43;;;;;;;6.17;4.67;;;9.80;92.60;;;;;;5072820;28;20217;-64
2022/04/03 06:25:09;;;;;;;4.63;4.23;;;11.80;80.30;;;;;;5072457;28;20177;-62
2022/04/03 06:27:35;;;;;;;6.53;4.53;;;13.50;70.40;;;;;;5073146;28;20176;-63
2022/04/03 06:30:00;;;;;;;5.30;4.20;;;14.80;62.90;;;;;;5072733;28;20252;-62
2022/04/03 06:32:26;;;;;;;6.23;4.70;;;15.30;57.30;;;;;;5073226;28;20234;-63
2022/04/03 06:34:52;;;;;;;5.00;4.57;;;16.50;54.30;;;;;;5072911;28;20172;-64
2022/04/03 06:37:17;;;;;;;5.30;4.80;;;18.10;50.90;;;;;;5072165;28;20259;-64
2022/04/03 06:39:43;;;;;;;6.97;4.93;;;18.40;45.60;;;;;;5071044;28;20679;-64
2022/04/03 06:42:09;;;;;;;6.40;4.60;;;19.10;43.80;;;;;;5072876;28;20179;-64
2022/04/03 06:44:35;;;;;;;5.22;4.60;;;19.50;41.20;;;;;;5072753;28;20222;-63
2022/04/03 06:47:01;;;;;;;5.32;4.90;;;19.70;38.90;;;;;;5071899;28;20178;-63
2022/04/03 06:49:30;;;;;;;6.43;4.75;;;20.00;38.40;;;;;;5072246;28;20283;-64
2022/04/03 06:51:55;;;;;;;4.70;4.20;;;21.10;36.80;;;;;;5072613;28;20275;-64
2022/04/03 06:54:21;;;;;;;4.65;3.75;;;21.90;34.60;;;;;;5072136;28;20211;-64
2022/04/03 06:56:46;;;;;;;5.20;3.83;;;21.50;32.30;;;;;;5072219;28;20221;-64
2022/04/03 06:59:12;;;;;;;4.25;3.50;;;21.70;32.40;;;;;;5072423;28;20212;-64
2022/04/03 07:01:38;;;;;;;3.80;3.50;;;21.70;31.80;;;;;;5074455;28;20183;-64
2022/04/03 07:04:04;;;;;;;3.75;3.28;;;21.60;30.20;;;;;;5076840;28;20658;-63
2022/04/03 07:06:29;;;;;;;3.65;3.25;;;21.70;30.50;;;;;;5076283;28;20658;-64
2022/04/03 07:08:55;;;;;;;4.50;3.17;;;21.60;29.40;;;;;;5076213;28;20185;-64
2022/04/03 07:11:20;;;;;;;7.15;2.88;;;22.50;30.00;;;;;;5076431;28;20175;-64
2022/04/03 07:13:46;;;;;;;4.75;3.00;;;23.10;28.70;;;;;;5076327;28;20689;-63
2022/04/03 07:16:12;;;;;;;3.22;2.92;;;23.50;27.60;;;;;;5076282;28;20264;-63
2022/04/03 07:18:37;;;;;;;3.80;3.47;;;23.40;27.10;;;;;;5076520;28;20283;-63
2022/04/03 07:21:04;;;;;;;3.38;3.08;;;23.30;27.10;;;;;;5075900;28;20608;-63
2022/04/03 07:23:29;;;;;;;3.53;2.55;;;24.00;26.60;;;;;;5075320;28;20520;-63
2022/04/03 07:25:55;;;;;;;3.88;3.10;;;24.70;25.70;;;;;;5076114;28;20172;-63
2022/04/03 07:28:20;;;;;;;4.65;2.60;;;24.40;25.40;;;;;;5076321;28;20651;-65
2022/04/03 07:30:46;;;;;;;3.60;2.20;;;24.60;24.90;;;;;;5076025;28;20168;-63
2022/04/03 07:33:11;;;;;;;2.53;2.20;;;24.80;24.40;;;;;;5076330;28;20179;-64
2022/04/03 07:35:37;;;;;;;3.08;2.70;;;24.60;24.00;;;;;;5075718;28;20522;-64
2022/04/03 07:38:03;;;;;;;3.83;2.80;;;24.70;23.80;;;;;;5075188;28;20565;-64
2022/04/03 07:40:30;;;;;;;2.67;2.40;;;24.90;23.70;;;;;;5075783;28;20187;-65
2022/04/03 07:42:56;;;;;;;4.82;2.40;;;25.00;23.60;;;;;;5075594;28;20237;-65
2022/04/03 07:45:22;;;;;;;2.35;1.88;;;25.10;23.20;;;;;;5075328;28;20176;-64
2022/04/03 07:47:50;;;;;;;2.60;2.05;;;23.90;23.20;;;;;;5075337;28;20516;-65
2022/04/03 07:50:18;;;;;;;2.45;2.28;;;24.40;24.00;;;;;;5075382;28;20196;-63
2022/04/03 07:52:45;;;;;;;2.70;2.50;;;24.20;23.50;;;;;;5075443;28;20242;-64
2022/04/03 07:55:11;;;;;;;3.80;2.22;;;23.10;23.90;;;;;;5075358;28;20224;-64
2022/04/03 07:57:39;;;;;;;5.03;2.53;;;23.10;24.40;;;;;;5074731;28;20620;-65
2022/04/03 08:00:10;;;;;;;3.40;2.80;;;22.80;24.50;;;;;;5075402;28;20669;-64
2022/04/03 08:02:37;;;;;;;3.25;2.67;;;22.70;24.70;;;;;;5075405;28;20259;-64
2022/04/03 08:05:04;;;;;;;2.67;2.50;;;23.10;25.00;;;;;;5075087;28;20172;-64
2022/04/03 08:07:44;;;;;;;2.67;2.22;;;22.80;24.70;;;;;;5074602;28;20169;-63
2022/04/03 08:10:12;;;;;;;3.53;2.00;;;23.40;24.30;;;;;;5075086;28;20199;-64
2022/04/03 08:12:39;;;;;;;4.53;2.10;;;23.00;24.20;;;;;;5074012;28;20167;-64
2022/04/03 08:15:07;;;;;;;3.80;2.00;;;22.80;24.30;;;;;;5075035;28;20202;-64
2022/04/03 08:17:34;;;;;;;1.70;1.60;;;21.20;24.80;;;;;;5074474;28;20176;-65
2022/04/03 08:20:03;;;;;;;1.83;1.70;;;20.90;25.60;;;;;;5075143;28;20192;-65
2022/04/03 08:22:28;;;;;;;1.85;1.73;;;20.70;25.90;;;;;;5074361;28;20180;-64
2022/04/03 08:24:54;;;;;;;1.98;1.80;;;18.90;27.20;;;;;;5074562;28;20169;-65
2022/04/03 08:27:20;;;;;;;2.40;2.10;;;19.70;27.60;;;;;;5074720;28;20173;-64
2022/04/03 08:29:46;;;;;;;2.30;1.67;;;20.60;27.00;;;;;;5075203;28;20277;-65
2022/04/03 08:32:13;;;;;;;2.78;2.10;;;20.70;26.60;;;;;;5074881;28;20160;-64
2022/04/03 08:34:39;;;;;;;3.10;2.00;;;20.80;26.50;;;;;;5074804;28;20207;-65
2022/04/03 08:37:04;;;;;;;2.42;1.95;;;21.50;26.50;;;;;;5074127;28;20203;-65
2022/04/03 08:39:30;;;;;;;1.80;1.70;;;21.50;26.20;;;;;;5074407;28;20623;-65
2022/04/03 08:41:56;;;;;;;1.98;1.60;;;21.50;26.30;;;;;;5074752;28;20706;-64
2022/04/03 08:44:22;;;;;;;2.40;2.30;;;21.70;26.00;;;;;;5074788;28;20177;-65
2022/04/03 08:46:49;;;;;;;4.20;1.88;;;21.40;25.90;;;;;;5074537;28;20168;-64
2022/04/03 08:49:17;;;;;;;2.72;1.70;;;21.20;26.10;;;;;;5074069;28;20675;-65
2022/04/03 08:51:43;;;;;;;1.77;1.67;;;20.10;26.00;;;;;;5074080;28;20172;-65
2022/04/03 08:54:10;;;;;;;2.83;1.77;;;20.50;26.30;;;;;;5074145;28;20172;-63
2022/04/03 08:56:36;;;;;;;1.83;1.73;;;20.00;26.70;;;;;;5073938;28;20308;-64
2022/04/03 08:59:02;;;;;;;2.00;1.80;;;20.10;27.10;;;;;;5073629;28;20199;-65
2022/04/03 09:01:29;;;;;;;3.83;1.90;;;19.50;27.60;;;;;;5074610;28;20564;-64
2022/04/03 09:03:55;;;;;;;3.50;1.90;;;20.90;27.10;;;;;;5073908;28;20255;-64
2022/04/03 09:06:23;;;;;;;3.08;1.80;;;21.80;26.50;;;;;;5073342;28;20259;-64
2022/04/03 09:08:49;;;;;;;3.25;1.88;;;22.30;25.90;;;;;;5073861;28;20220;-64
2022/04/03 09:11:16;;;;;;;2.63;1.70;;;23.00;25.40;;;;;;5074057;28;20675;-64
2022/04/03 09:13:43;;;;;;;1.83;1.70;;;22.10;25.20;;;;;;5074007;28;20164;-64
2022/04/03 09:16:10;;;;;;;2.30;1.70;;;22.40;25.00;;;;;;5073804;28;20172;-64
2022/04/03 09:18:52;;;;;;;2.75;1.65;;;22.30;24.70;;;;;;5073138;28;20659;-64
2022/04/03 09:21:26;;;;;;;1.92;1.73;;;22.80;24.70;;;;;;5073576;28;20222;-64
2022/04/03 09:24:08;;;;;;;5.45;2.15;;;22.30;24.90;;;;;;5073349;28;20184;-64
2022/04/03 09:26:35;;;;;;;2.13;1.70;;;22.90;24.60;;;;;;5073714;28;20643;-64
2022/04/03 09:29:15;;;;;;;5.18;1.90;;;23.10;24.00;;;;;;5073893;28;20227;-63
2022/04/03 09:31:44;;;;;;;3.58;1.77;;;22.60;24.40;;;;;;5073727;28;20165;-64
2022/04/03 09:34:26;;;;;;;2.28;2.08;;;22.90;24.20;;;;;;5073186;28;20663;-64
2022/04/03 09:37:00;;;;;;;1.98;1.88;;;23.60;23.80;;;;;;5073553;28;20696;-64
2022/04/03 09:39:28;;;;;;;1.88;1.77;;;23.30;23.30;;;;;;5073327;28;20167;-65
2022/04/03 09:42:05;;;;;;;2.60;2.13;;;22.60;23.00;;;;;;5073563;28;20210;-63
2022/04/03 09:44:38;;;;;;;3.40;2.10;;;22.40;23.70;;;;;;5073283;28;20243;-64
2022/04/03 09:47:22;;;;;;;3.00;2.28;;;21.20;24.10;;;;;;5072716;28;20263;-64
2022/04/03 09:49:58;;;;;;;1.92;1.80;;;20.40;25.00;;;;;;5072085;28;20253;-65
2022/04/03 09:52:40;;;;;;;2.20;2.00;;;20.80;24.60;;;;;;5073397;28;20701;-64
2022/04/03 09:55:12;;;;;;;2.33;2.10;;;21.70;24.60;;;;;;5072904;28;20277;-65
2022/04/03 09:57:38;;;;;;;3.13;2.50;;;22.70;24.40;;;;;;5072671;28;20173;-65
2022/04/03 10:00:05;;;;;;;2.90;2.70;;;22.80;24.60;;;;;;5072808;28;20679;-65
2022/04/03 10:02:32;;;;;;;2.72;2.50;;;22.90;24.50;;;;;;5072883;28;20187;-65
2022/04/03 10:04:58;;;;;;;4.00;2.70;;;23.10;24.30;;;;;;5072847;28;20168;-65
2022/04/03 10:07:24;;;;;;;2.42;2.22;;;21.90;25.20;;;;;;5072594;28;20210;-63
2022/04/03 10:09:51;;;;;;;2.78;2.58;;;20.40;25.00;;;;;;5071978;28;20247;-63
2022/04/03 10:12:19;;;;;;;2.72;2.53;;;18.70;26.60;;;;;;5072734;28;20218;-63
2022/04/03 10:14:50;;;;;;;4.00;2.80;;;18.40;27.20;;;;;;5072528;28;20165;-64
2022/04/03 10:17:17;;;;;;;4.20;2.75;;;19.20;27.20;;;;;;5072284;28;20176;-65
2022/04/03 10:19:43;;;;;;;3.65;3.33;;;20.20;27.00;;;;;;5072858;28;20217;-64
2022/04/03 10:22:17;;;;;;;2.55;2.35;;;20.90;26.20;;;;;;5072844;28;20169;-63
2022/04/03 10:24:48;;;;;;;3.80;2.67;;;21.00;25.60;;;;;;5072784;28;20199;-62
2022/04/03 10:27:23;;;;;;;2.83;2.30;;;20.50;25.70;;;;;;5072675;28;20181;-63
2022/04/03 10:29:49;;;;;;;2.70;2.50;;;20.20;25.70;;;;;;5072741;28;20440;-63
2022/04/03 10:32:27;;;;;;;3.28;3.08;;;19.00;25.70;;;;;;5072912;28;20165;-64
2022/04/03 10:34:56;;;;;;;2.90;2.70;;;18.10;27.00;;;;;;5072374;28;20168;-64
2022/04/03 10:37:42;;;;;;;3.28;2.50;;;18.20;27.30;;;;;;5072342;28;20577;-65
2022/04/03 10:40:16;;;;;;;2.88;2.60;;;19.00;26.90;;;;;;5072751;28;20179;-63
2022/04/03 10:43:01;;;;;;;7.45;3.67;;;18.90;26.80;;;;;;5072620;28;20172;-64
2022/04/03 10:45:27;;;;;;;2.50;2.30;;;19.00;27.30;;;;;;5072288;28;20176;-65
2022/04/03 10:48:19;;;;;;;2.78;2.50;;;19.90;26.30;;;;;;5071475;28;20643;-64
2022/04/03 10:51:04;;;;;;;2.95;2.75;;;20.90;25.60;;;;;;5072499;28;20180;-63
2022/04/03 10:53:32;;;;;;;2.78;2.58;;;20.70;25.30;;;;;;5071671;28;20653;-63
2022/04/03 10:56:02;;;;;;;2.90;2.70;;;20.90;24.60;;;;;;5072180;28;20246;-63
2022/04/03 10:58:45;;;;;;;3.63;2.40;;;20.10;24.80;;;;;;5071659;28;20198;-63
2022/04/03 11:01:23;;;;;;;2.97;2.78;;;19.40;24.70;;;;;;5071990;28;20181;-64
2022/04/03 11:04:07;;;;;;;3.88;2.67;;;18.20;25.60;;;;;;5072610;28;20259;-63
2022/04/03 11:06:35;;;;;;;3.45;2.78;;;17.50;26.40;;;;;;5071946;28;20172;-64
2022/04/03 11:09:05;;;;;;;2.78;2.58;;;16.90;27.10;;;;;;5071937;28;20206;-63
2022/04/03 11:11:48;;;;;;;2.75;2.55;;;16.90;27.80;;;;;;5071884;28;20171;-63
2022/04/03 11:14:55;;;;;;;3.05;2.85;;;17.40;27.00;;;;;;5072314;28;20172;-64
2022/04/03 11:17:58;;;;;;;2.95;2.40;;;17.40;26.00;;;;;;5071857;28;20214;-64
2022/04/03 11:20:38;;;;;;;4.10;2.40;;;17.20;25.40;;;;;;5072137;28;20168;-64
2022/04/03 11:23:05;;;;;;;2.80;2.60;;;16.50;26.30;;;;;;5072092;28;20165;-65
2022/04/03 11:25:30;;;;;;;3.42;3.13;;;16.80;26.30;;;;;;5072329;28;20168;-64
2022/04/03 11:27:56;;;;;;;3.20;2.90;;;15.80;26.40;;;;;;5071567;28;20223;-64
2022/04/03 11:30:22;;;;;;;2.90;2.70;;;15.10;27.70;;;;;;5071764;28;20176;-64
2022/04/03 11:32:50;;;;;;;2.90;2.70;;;16.20;28.00;;;;;;5072333;28;20229;-65
2022/04/03 11:35:15;;;;;;;2.70;2.60;;;17.70;27.60;;;;;;5072117;28;20179;-63
2022/04/03 11:37:44;;;;;;;3.45;2.63;;;17.80;26.50;;;;;;5071388;28;20169;-64
2022/04/03 11:40:12;;;;;;;3.40;2.80;;;18.70;26.80;;;;;;5071727;28;20718;-64
2022/04/03 11:42:38;;;;;;;3.00;2.80;;;18.70;26.20;;;;;;5071647;28;20177;-63
2022/04/03 11:45:07;;;;;;;2.42;2.20;;;18.40;26.00;;;;;;5071331;28;20169;-64
2022/04/03 11:47:33;;;;;;;2.70;2.40;;;17.80;26.10;;;;;;5073905;28;20173;-65
2022/04/03 11:50:05;;;;;;;4.78;2.90;;;17.20;26.60;;;;;;5074721;28;20223;-64
2022/04/03 11:52:30;;;;;;;4.07;3.67;;;16.70;27.00;;;;;;5075587;28;20196;-63
2022/04/03 11:54:56;;;;;;;3.23;2.90;;;15.90;27.80;;;;;;5074993;28;20635;-64
2022/04/03 11:57:22;;;;;;;2.37;2.20;;;15.40;28.30;;;;;;5074738;28;20521;-63
2022/04/03 11:59:53;;;;;;;2.43;2.23;;;14.30;28.70;;;;;;5075131;28;20195;-63
2022/04/03 12:02:19;;;;;;;2.73;2.00;;;13.70;31.00;;;;;;5075381;28;20204;-63
2022/04/03 12:04:45;;;;;;;2.43;1.93;;;14.10;30.90;;;;;;5075016;28;20654;-64
2022/04/03 12:07:14;;;;;;;2.00;1.90;;;15.00;30.30;;;;;;5075154;28;20172;-64
2022/04/03 12:09:44;;;;;;;3.40;2.13;;;15.80;29.50;;;;;;5075009;28;20216;-64
2022/04/03 12:12:10;;;;;;;2.30;2.10;;;15.90;28.50;;;;;;5075028;28;20575;-63
2022/04/03 12:14:40;;;;;;;2.60;2.40;;;15.20;29.30;;;;;;5074415;28;20173;-65
2022/04/03 12:17:12;;;;;;;2.10;1.93;;;15.00;29.80;;;;;;5074997;28;20164;-65
2022/04/03 12:19:44;;;;;;;2.77;2.40;;;14.30;31.00;;;;;;5075082;28;20180;-64
2022/04/03 12:22:13;;;;;;;2.50;2.27;;;14.00;31.90;;;;;;5074905;28;20169;-65
2022/04/03 12:24:39;;;;;;;2.40;2.20;;;14.20;31.50;;;;;;5075269;28;20195;-64
2022/04/03 12:27:14;;;;;;;4.13;2.30;;;14.30;31.30;;;;;;5073657;28;20260;-64
2022/04/03 12:29:48;;;;;;;2.23;2.03;;;14.20;30.50;;;;;;5074220;28;20211;-65
2022/04/03 12:32:18;;;;;;;2.70;2.20;;;13.70;31.10;;;;;;5074341;28;20221;-63
2022/04/03 12:34:47;;;;;;;2.10;2.00;;;14.30;31.20;;;;;;5074614;28;20264;-66
2022/04/03 12:37:13;;;;;;;2.23;1.90;;;14.20;31.30;;;;;;5074473;28;20173;-63
2022/04/03 12:39:42;;;;;;;5.67;3.70;;;14.30;31.10;;;;;;5072314;28;20533;-63
2022/04/03 12:42:11;;;;;;;2.40;2.20;;;14.10;31.70;;;;;;5073672;28;20208;-63
2022/04/03 12:44:58;;;;;;;2.77;2.57;;;14.20;31.40;;;;;;5074138;28;20177;-64
2022/04/03 12:47:40;;;;;;;2.20;2.00;;;14.00;31.60;;;;;;5074423;28;20651;-63
2022/04/03 12:50:05;;;;;;;3.90;2.10;;;13.60;32.60;;;;;;5073752;28;20216;-63
2022/04/03 12:52:50;;;;;;;2.83;2.30;;;13.60;32.90;;;;;;5074553;28;20666;-63
2022/04/03 12:55:25;;;;;;;3.30;2.40;;;13.60;33.40;;;;;;5073431;28;20691;-64
2022/04/03 13:00:56;;;;;;;6.10;5.50;;;13.10;34.10;;;;;;5074123;28;20776;-64